Time;durP1;ratioP1;P1;durP2;ratioP2;P2;SDS_P1;SDS_P2;PMS_P1;PMS_P2;Temp;Humidity;BMP_temperature;BMP_pressure;BME280_temperature;BME280_humidity;BME280_pressure;Samples;Min_cycle;Max_cycle;Signal;HPM_P1;HPM_P2
2022/02/02 00:00:56;;;;;;;16.50;9.20;;;;;;;1.31;86.29;98157.94;89766;1273;88228;-69
2022/02/02 00:03:09;;;;;;;14.50;9.40;;;;;;;1.30;86.36;98148.27;89763;1273;94050;-69
2022/02/02 00:05:25;;;;;;;;;;;;;;;1.24;86.48;98142.06;89795;1273;78135;-62
2022/02/02 00:07:51;;;;;;;15.60;9.10;;;;;;;1.18;86.37;98138.88;89786;1273;79982;-63
2022/02/02 00:10:10;;;;;;;15.70;9.20;;;;;;;1.13;86.46;98145.31;89743;1273;96750;-62
2022/02/02 00:12:24;;;;;;;16.30;8.50;;;;;;;1.11;86.35;98142.27;89741;1271;87088;-62
2022/02/02 00:14:46;;;;;;;;;;;;;;;1.11;86.34;98138.52;89775;1273;95398;-63
2022/02/02 00:16:59;;;;;;;13.60;8.40;;;;;;;1.07;86.62;98134.20;89768;1273;79234;-63
2022/02/02 00:19:15;;;;;;;16.30;9.20;;;;;;;1.08;86.62;98130.23;89769;1273;82288;-62
2022/02/02 00:21:28;;;;;;;11.30;7.30;;;;;;;1.10;86.66;98129.17;89765;1273;98671;-62
2022/02/02 00:23:41;;;;;;;14.20;7.70;;;;;;;1.13;86.79;98126.91;89767;1273;88975;-63
2022/02/02 00:25:58;;;;;;;13.40;7.40;;;;;;;1.10;87.03;98124.81;89761;1272;95805;-72
2022/02/02 00:28:07;;;;;;;14.10;7.30;;;;;;;1.13;86.90;98122.79;89755;1273;79573;-69
2022/02/02 00:30:19;;;;;;;11.70;7.30;;;;;;;1.16;86.91;98117.34;89643;1276;83856;-62
2022/02/02 00:32:49;;;;;;;12.30;7.00;;;;;;;1.20;86.94;98113.65;89754;1273;97562;-62
2022/02/02 00:35:01;;;;;;;12.50;7.90;;;;;;;1.22;86.85;98111.52;89768;1273;88548;-70
2022/02/02 00:37:11;;;;;;;12.30;7.20;;;;;;;1.25;86.97;98113.39;89748;1273;94275;-70
2022/02/02 00:39:22;;;;;;;11.90;7.40;;;;;;;1.27;86.95;98111.17;89756;1273;78744;-69
2022/02/02 00:41:39;;;;;;;10.90;7.00;;;;;;;1.30;86.98;98107.61;89788;1273;80651;-72
2022/02/02 00:43:58;;;;;;;10.30;7.00;;;;;;;1.30;86.94;98105.16;89767;1273;97234;-71
2022/02/02 00:46:07;;;;;;;11.60;7.20;;;;;;;1.23;87.07;98103.36;89781;1273;87965;-63
2022/02/02 00:48:27;;;;;;;11.20;6.80;;;;;;;1.16;87.15;98096.80;89743;1273;94861;-63
2022/02/02 00:50:37;;;;;;;11.90;6.90;;;;;;;1.14;86.89;98095.42;89747;1273;79189;-66
2022/02/02 00:52:50;;;;;;;13.20;7.40;;;;;;;1.16;86.89;98092.14;89749;1273;82205;-62
2022/02/02 00:55:03;;;;;;;9.80;6.50;;;;;;;1.22;86.89;98091.42;89763;1273;99972;-70
2022/02/02 00:57:12;;;;;;;11.50;6.80;;;;;;;1.24;86.79;98090.52;89758;1273;88925;-71
2022/02/02 00:59:24;;;;;;;10.40;6.20;;;;;;;1.27;86.76;98091.70;89762;1273;95253;-66
2022/02/02 01:01:34;;;;;;;11.70;6.50;;;;;;;1.35;86.82;98092.64;89736;1273;80771;-70
2022/02/02 01:03:42;;;;;;;10.90;6.30;;;;;;;1.38;86.75;98087.81;89758;1273;82834;-73
2022/02/02 01:05:52;;;;;;;10.70;6.40;;;;;;;1.40;86.92;98087.58;89774;1273;100139;-64
2022/02/02 01:10:41;;;;;;;8.00;5.30;;;;;;;1.36;87.07;98079.07;89303;1279;95909;-64
2022/02/02 01:13:04;;;;;;;10.80;6.00;;;;;;;1.34;86.99;98086.55;89753;1271;79308;-63
2022/02/02 01:18:11;;;;;;;8.90;5.70;;;;;;;1.39;86.70;98075.55;89566;1274;98165;-64
2022/02/02 01:27:50;;;;;;;7.30;5.00;;;;;;;1.32;87.19;98074.81;89714;1276;80680;-64
2022/02/02 01:30:03;;;;;;;7.40;4.50;;;;;;;1.38;86.96;98063.38;89727;1274;99563;-70
2022/02/02 01:32:12;;;;;;;7.30;4.80;;;;;;;1.42;86.97;98058.80;89710;1274;87981;-71
2022/02/02 01:34:25;;;;;;;8.90;5.70;;;;;;;1.39;87.09;98055.62;89674;1275;95227;-65
2022/02/02 01:36:39;;;;;;;8.20;4.50;;;;;;;1.47;87.07;98056.57;89711;1274;79800;-71
2022/02/02 01:38:50;;;;;;;5.90;3.80;;;;;;;1.48;87.14;98054.77;89742;1274;80445;-69
2022/02/02 01:41:04;;;;;;;7.40;4.00;;;;;;;1.50;87.07;98060.73;89706;1274;98026;-64
2022/02/02 01:43:20;;;;;;;5.70;3.60;;;;;;;1.56;87.02;98059.57;89469;1274;316946;-64
2022/02/02 01:45:34;;;;;;;6.00;3.90;;;;;;;1.62;86.94;98055.04;89713;1274;93892;-64
2022/02/02 01:47:53;;;;;;;6.60;4.30;;;;;;;1.68;86.85;98056.41;89712;1274;77525;-64
2022/02/02 01:50:16;;;;;;;6.80;4.20;;;;;;;1.72;86.83;98058.52;89721;1274;81611;-64
2022/02/02 01:52:47;;;;;;;6.10;4.20;;;;;;;1.70;86.77;98056.14;89735;1274;98205;-65
2022/02/02 01:54:59;;;;;;;5.70;3.80;;;;;;;1.60;86.68;98054.36;89737;1274;88351;-65
2022/02/02 01:57:28;;;;;;;6.10;4.20;;;;;;;1.52;86.71;98053.63;89718;1274;93453;-64
2022/02/02 01:59:39;;;;;;;6.10;4.00;;;;;;;1.46;86.80;98053.81;89697;1274;79928;-69
2022/02/02 02:01:48;;;;;;;6.80;3.90;;;;;;;1.46;86.70;98054.38;89714;1274;83457;-68
2022/02/02 02:03:57;;;;;;;6.70;3.80;;;;;;;1.48;86.85;98052.92;89689;1275;99598;-69
2022/02/02 02:06:10;;;;;;;6.60;3.60;;;;;;;1.44;86.96;98048.22;89720;1276;88273;-69
2022/02/02 02:08:20;;;;;;;5.60;3.70;;;;;;;1.40;86.97;98051.81;89698;1274;92725;-70
2022/02/02 02:10:29;;;;;;;7.00;4.10;;;;;;;1.44;87.06;98051.33;89710;1274;81624;-63
2022/02/02 02:12:48;;;;;;;5.40;3.20;;;;;;;1.50;86.98;98047.63;89727;1273;83780;-63
2022/02/02 02:15:02;;;;;;;5.50;3.50;;;;;;;1.54;86.95;98050.58;89762;1273;99367;-62
2022/02/02 02:17:10;;;;;;;;;;;;;;;1.58;86.91;98048.08;89783;1273;89333;-63
2022/02/02 02:19:21;;;;;;;6.00;3.50;;;;;;;1.64;86.88;98048.19;89757;1273;95678;-62
2022/02/02 02:21:30;;;;;;;4.50;3.20;;;;;;;1.68;86.89;98045.89;89793;1273;78541;-69
2022/02/02 02:23:39;;;;;;;4.70;3.00;;;;;;;1.70;86.92;98043.02;89822;1273;80537;-70
2022/02/02 02:25:51;;;;;;;5.00;3.40;;;;;;;1.63;87.03;98044.28;89812;1273;98765;-70
2022/02/02 02:28:09;;;;;;;5.50;3.30;;;;;;;1.63;86.89;98045.27;89814;1274;87366;-69
2022/02/02 02:30:26;;;;;;;5.20;3.70;;;;;;;1.65;86.73;98046.45;89805;1273;94132;-69
2022/02/02 02:33:05;;;;;;;6.10;3.80;;;;;;;1.65;86.78;98041.05;89806;1273;79785;-69
2022/02/02 02:55:43;;;;;;;6.40;3.80;;;;;;;1.59;86.85;98043.14;89438;1279;89317;-63
2022/02/02 02:57:52;;;;;;;5.60;4.00;;;;;;;1.76;86.56;98033.76;89815;1273;77666;-64
2022/02/02 03:00:20;;;;;;;5.20;4.00;;;;;;;1.75;86.61;98030.67;89809;1273;81936;-69
2022/02/02 03:29:56;;;;;;;6.50;5.10;;;;;;;1.74;86.70;98026.57;89801;1273;88502;-63
2022/02/02 03:32:29;;;;;;;7.90;5.90;;;;;;;1.75;86.55;98023.55;89796;1273;95460;-63
2022/02/02 03:49:49;;;;;;;8.30;5.80;;;;;;;2.05;87.17;98025.88;89801;1273;81278;-69
2022/02/02 03:52:20;;;;;;;11.50;5.90;;;;;;;2.09;87.33;98027.42;89780;1273;100093;-64
2022/02/02 03:54:46;;;;;;;8.90;5.40;;;;;;;2.14;87.27;98030.20;89797;1273;87576;-65
2022/02/02 03:59:40;;;;;;;8.80;5.70;;;;;;;2.17;87.30;98028.52;89786;1273;77576;-64
2022/02/02 04:02:10;;;;;;;9.10;5.40;;;;;;;2.22;87.27;98031.46;89816;1273;81337;-65
2022/02/02 04:04:27;;;;;;;10.60;6.20;;;;;;;2.25;87.31;98030.48;89818;1273;100214;-64
2022/02/02 04:06:54;;;;;;;9.20;5.10;;;;;;;2.26;87.14;98029.84;89813;1273;87163;-68
2022/02/02 04:09:03;;;;;;;10.00;5.00;;;;;;;2.27;87.24;98030.23;89802;1273;95536;-68
2022/02/02 04:11:16;;;;;;;10.20;5.10;;;;;;;2.26;87.19;98032.22;89753;1273;80876;-68
2022/02/02 04:13:54;;;;;;;10.70;5.00;;;;;;;2.24;87.43;98034.91;89819;1273;81198;-68
2022/02/02 04:38:41;;;;;;;9.40;5.00;;;;;;;2.56;87.62;98058.85;89803;1273;83221;-67
2022/02/02 04:55:43;;;;;;;10.80;4.80;;;;;;;2.68;87.59;98058.02;89410;1273;89855;-68
2022/02/02 05:01:01;;;;;;;8.00;4.50;;;;;;;2.67;87.52;98061.21;89775;1273;80504;-61
2022/02/02 05:05:48;;;;;;;7.60;5.00;;;;;;;2.66;87.53;98064.52;89600;1273;98659;-60
2022/02/02 05:08:05;;;;;;;11.10;4.90;;;;;;;2.67;87.69;98061.30;89803;1273;89442;-60
2022/02/02 05:10:23;;;;;;;11.00;4.60;;;;;;;2.67;87.78;98061.86;89763;1273;93990;-68
2022/02/02 05:20:50;;;;;;;7.00;4.40;;;;;;;2.72;87.62;98069.36;89594;1276;88500;-60
2022/02/02 05:50:49;;;;;;;5.30;3.20;;;;;;;2.64;88.08;98086.05;88243;1274;94951;-61
2022/02/02 05:53:01;;;;;;;7.40;3.10;;;;;;;2.68;88.01;98082.91;88260;1274;80307;-61
2022/02/02 05:55:14;;;;;;;7.10;3.60;;;;;;;2.68;88.26;98084.80;88274;1274;80790;-67
2022/02/02 05:57:28;;;;;;;8.00;3.40;;;;;;;2.70;88.03;98085.80;88300;1274;96611;-68
2022/02/02 05:59:38;;;;;;;9.30;4.20;;;;;;;2.73;88.13;98084.25;88272;1274;89194;-67
2022/02/02 06:01:55;;;;;;;9.70;4.40;;;;;;;2.70;88.20;98090.02;88249;1274;95581;-67
2022/02/02 06:04:09;;;;;;;10.10;4.20;;;;;;;2.75;88.15;98095.42;88286;1274;81351;-67
2022/02/02 06:06:16;;;;;;;;;;;;;;;2.76;88.08;98094.27;88295;1274;80119;-67
2022/02/02 06:08:28;;;;;;;11.00;3.90;;;;;;;2.72;88.13;98092.53;88291;1274;96744;-67
2022/02/02 06:10:38;;;;;;;9.80;3.90;;;;;;;2.74;88.07;98084.46;88240;1274;87802;-67
2022/02/02 06:12:48;;;;;;;8.50;3.70;;;;;;;2.78;88.17;98084.48;88261;1274;96507;-67
2022/02/02 06:14:59;;;;;;;10.70;4.30;;;;;;;2.81;88.43;98091.45;88265;1274;78524;-67
2022/02/02 06:17:09;;;;;;;9.80;4.50;;;;;;;2.82;88.05;98095.96;88209;1274;82026;-67
2022/02/02 06:19:19;;;;;;;11.00;4.70;;;;;;;2.81;88.21;98098.20;88258;1274;98218;-67
2022/02/02 06:21:32;;;;;;;13.30;5.40;;;;;;;2.84;88.24;98108.20;88309;1274;86824;-60
2022/02/02 06:23:49;;;;;;;12.10;5.50;;;;;;;2.86;88.03;98109.67;88258;1274;95981;-61
2022/02/02 06:26:03;;;;;;;9.60;4.30;;;;;;;2.86;88.09;98113.77;88262;1274;81708;-67
2022/02/02 06:28:21;;;;;;;10.80;3.90;;;;;;;2.83;88.27;98119.46;88251;1274;82393;-66
2022/02/02 06:30:33;;;;;;;9.10;4.00;;;;;;;2.85;88.27;98125.42;88257;1274;97828;-60
2022/02/02 06:32:49;;;;;;;10.40;4.20;;;;;;;2.87;88.24;98129.86;88279;1274;87700;-60
2022/02/02 06:35:06;;;;;;;9.50;4.30;;;;;;;2.86;87.96;98134.63;88280;1274;95093;-68
2022/02/02 06:37:15;;;;;;;6.20;3.60;;;;;;;2.88;88.15;98136.80;88265;1274;79751;-68
2022/02/02 06:39:24;;;;;;;8.80;3.30;;;;;;;2.90;88.07;98137.80;88263;1274;81422;-63
2022/02/02 06:41:32;;;;;;;6.80;2.90;;;;;;;2.94;88.14;98141.76;88275;1274;97846;-60
2022/02/02 06:43:41;;;;;;;7.80;2.80;;;;;;;2.93;88.18;98149.15;88283;1274;86957;-60
2022/02/02 06:45:53;;;;;;;9.30;3.20;;;;;;;2.93;88.17;98152.34;88252;1274;93653;-61
2022/02/02 06:48:06;;;;;;;7.80;2.90;;;;;;;2.91;88.20;98156.10;88190;1274;81383;-60
2022/02/02 06:50:20;;;;;;;8.60;3.10;;;;;;;2.93;88.26;98160.14;88261;1274;82521;-61
2022/02/02 06:52:38;;;;;;;7.50;3.90;;;;;;;2.95;88.16;98158.96;88269;1274;98911;-60
2022/02/02 06:55:02;;;;;;;8.70;3.70;;;;;;;2.93;88.11;98155.83;88295;1274;87275;-60
2022/02/02 06:57:22;;;;;;;9.70;3.80;;;;;;;2.94;88.12;98157.84;88254;1274;93806;-60
2022/02/02 06:59:52;;;;;;;10.70;4.50;;;;;;;2.96;88.06;98157.25;88196;1275;80299;-60
2022/02/02 07:02:25;;;;;;;8.80;3.60;;;;;;;2.99;88.04;98154.91;88270;1274;82744;-60
2022/02/02 07:07:36;;;;;;;7.70;3.50;;;;;;;2.98;88.12;98159.17;88258;1274;88977;-67
2022/02/02 07:10:07;;;;;;;9.90;3.20;;;;;;;2.97;88.26;98160.11;88251;1274;94122;-67
2022/02/02 07:12:32;;;;;;;8.30;3.30;;;;;;;3.00;88.04;98159.64;88234;1274;80450;-67
2022/02/02 07:15:08;;;;;;;6.90;2.80;;;;;;;3.03;88.10;98163.73;88265;1274;80536;-60
2022/02/02 07:17:35;;;;;;;7.90;2.70;;;;;;;3.00;88.00;98169.20;88236;1274;97877;-60
2022/02/02 07:19:58;;;;;;;6.20;2.80;;;;;;;3.03;88.11;98166.27;88263;1274;87372;-66
2022/02/02 07:22:22;;;;;;;8.10;3.00;;;;;;;3.04;88.01;98165.90;88242;1274;94789;-67
2022/02/02 07:24:54;;;;;;;7.90;3.00;;;;;;;3.03;88.02;98171.85;88176;1274;78988;-61
2022/02/02 07:29:35;;;;;;;10.40;3.60;;;;;;;3.09;88.02;98177.84;88195;1274;97846;-68
2022/02/02 07:32:07;;;;;;;8.30;2.80;;;;;;;3.09;87.81;98184.20;88236;1274;88758;-68
2022/02/02 07:34:34;;;;;;;8.40;3.10;;;;;;;3.10;87.96;98187.85;88175;1275;95384;-68
2022/02/02 07:36:47;;;;;;;7.70;2.80;;;;;;;3.06;87.85;98189.14;88244;1274;78962;-68
2022/02/02 07:39:04;;;;;;;6.60;3.10;;;;;;;3.09;87.83;98191.79;88187;1275;80396;-67
2022/02/02 07:41:20;;;;;;;18.00;6.70;;;;;;;3.10;87.84;98193.78;88206;1274;98022;-62
2022/02/02 07:43:32;;;;;;;28.00;14.40;;;;;;;3.06;87.96;98193.33;88262;1274;88749;-61
2022/02/02 07:45:42;;;;;;;9.90;5.10;;;;;;;3.15;87.89;98191.20;88248;1274;93957;-61
2022/02/02 07:47:59;;;;;;;6.70;3.00;;;;;;;3.21;87.71;98194.40;88241;1274;77828;-61
2022/02/02 07:50:13;;;;;;;6.80;3.20;;;;;;;3.25;87.76;98198.39;88288;1274;80789;-61
2022/02/02 07:52:27;;;;;;;7.70;2.90;;;;;;;3.21;87.86;98196.36;88252;1274;97556;-61
2022/02/02 07:54:40;;;;;;;8.00;2.90;;;;;;;3.18;87.60;98199.67;88228;1274;88201;-62
2022/02/02 07:56:52;;;;;;;8.50;2.90;;;;;;;3.16;87.54;98198.30;88269;1274;94955;-62
2022/02/02 07:59:15;;;;;;;7.00;2.40;;;;;;;3.11;87.55;98199.42;88284;1274;79367;-61
2022/02/02 08:01:28;;;;;;;8.70;2.70;;;;;;;3.10;87.63;98202.62;88246;1274;82753;-61
2022/02/02 08:03:43;;;;;;;7.10;2.30;;;;;;;3.05;87.54;98200.27;88236;1274;97001;-62
2022/02/02 08:05:53;;;;;;;8.30;2.70;;;;;;;3.05;87.64;98199.71;88272;1274;88465;-63
2022/02/02 08:08:12;;;;;;;5.30;2.20;;;;;;;3.08;87.64;98207.58;88232;1274;96136;-61
2022/02/02 08:10:23;;;;;;;9.10;4.40;;;;;;;3.13;87.59;98206.73;88273;1274;79407;-66
2022/02/02 08:12:41;;;;;;;7.80;3.10;;;;;;;3.19;87.53;98213.54;88256;1274;81978;-66
2022/02/02 08:14:56;;;;;;;4.70;2.70;;;;;;;3.19;87.73;98219.30;88281;1274;95709;-63
2022/02/02 08:17:08;;;;;;;4.50;2.70;;;;;;;3.18;87.69;98219.41;88263;1274;88740;-61
2022/02/02 08:19:20;;;;;;;5.80;2.20;;;;;;;3.20;87.43;98220.58;88234;1274;95576;-61
2022/02/02 08:21:31;;;;;;;7.30;2.70;;;;;;;3.19;87.49;98224.92;88252;1274;79055;-65
2022/02/02 08:23:44;;;;;;;5.60;2.30;;;;;;;3.19;87.36;98220.81;88260;1274;82187;-65
2022/02/02 08:25:52;;;;;;;7.20;2.60;;;;;;;3.23;87.41;98226.39;88252;1274;97890;-62
2022/02/02 08:28:06;;;;;;;5.30;2.30;;;;;;;3.24;87.57;98225.53;88215;1274;86684;-61
2022/02/02 08:30:19;;;;;;;6.20;2.10;;;;;;;3.25;87.59;98221.64;88238;1274;94796;-65
2022/02/02 08:32:32;;;;;;;6.00;2.30;;;;;;;3.13;87.45;98228.41;88262;1274;78929;-65
2022/02/02 08:34:48;;;;;;;4.20;2.60;;;;;;;3.14;87.37;98231.98;88224;1275;82928;-61
2022/02/02 08:37:00;;;;;;;4.80;1.90;;;;;;;3.24;87.35;98237.67;88245;1274;96261;-62
2022/02/02 08:39:20;;;;;;;5.30;2.20;;;;;;;3.25;87.38;98241.55;88243;1274;86982;-61
2022/02/02 08:41:33;;;;;;;4.30;2.30;;;;;;;3.22;87.45;98245.83;88220;1274;95937;-64
2022/02/02 08:43:46;;;;;;;6.60;2.70;;;;;;;3.21;87.48;98249.64;88241;1274;80028;-64
2022/02/02 08:45:59;;;;;;;5.50;2.10;;;;;;;3.27;87.44;98248.75;88273;1274;80825;-61
2022/02/02 08:48:19;;;;;;;5.90;2.50;;;;;;;3.31;87.39;98248.50;88244;1274;96930;-61
2022/02/02 08:50:36;;;;;;;4.50;2.00;;;;;;;3.30;87.25;98251.59;88259;1274;89438;-68
2022/02/02 08:52:53;;;;;;;6.20;2.80;;;;;;;3.27;87.15;98256.65;88265;1274;94535;-69
2022/02/02 08:55:08;;;;;;;5.70;2.70;;;;;;;3.28;87.27;98262.91;88183;1274;78672;-61
2022/02/02 08:57:41;;;;;;;5.70;2.60;;;;;;;3.29;87.08;98272.23;88281;1274;83359;-62
2022/02/02 08:59:58;;;;;;;6.40;2.30;;;;;;;3.23;87.18;98281.84;88242;1274;98145;-66
2022/02/02 09:02:12;;;;;;;6.90;2.30;;;;;;;3.14;86.96;98289.16;88237;1274;88255;-67
2022/02/02 09:06:52;;;;;;;6.20;2.90;;;;;;;3.03;87.07;98304.14;88241;1274;79001;-62
2022/02/02 09:09:10;;;;;;;4.30;2.20;;;;;;;3.01;87.26;98307.77;88246;1274;81180;-62
2022/02/02 09:31:25;;;;;;;4.40;2.40;;;;;;;3.08;87.05;98322.39;87925;1280;88541;-62
2022/02/02 09:31:37;;;;;;;5.30;2.80;;;;;;;2.94;87.00;98328.73;88203;1277;77283;-67
2022/02/02 09:33:55;;;;;;;4.30;2.60;;;;;;;2.92;87.10;98327.67;88183;1274;82177;-67
2022/02/02 09:36:07;;;;;;;5.90;2.50;;;;;;;2.99;86.99;98333.77;88213;1274;98400;-66
2022/02/02 09:38:19;;;;;;;6.30;3.30;;;;;;;2.94;86.92;98337.95;88197;1274;89051;-66
2022/02/02 09:41:09;;;;;;;6.50;2.80;;;;;;;2.92;86.90;98336.48;88162;1274;93950;-66
2022/02/02 09:43:08;;;;;;;4.70;2.30;;;;;;;2.91;86.83;98338.66;88192;1277;80601;-66
2022/02/02 09:45:20;;;;;;;5.00;2.80;;;;;;;2.91;86.77;98344.76;88207;1274;80915;-66
2022/02/02 09:47:41;;;;;;;3.90;2.80;;;;;;;2.88;86.87;98342.32;88192;1274;98179;-67
2022/02/02 09:50:01;;;;;;;5.70;2.60;;;;;;;2.85;86.90;98343.77;88199;1275;88019;-61
2022/02/02 09:52:13;;;;;;;4.30;2.30;;;;;;;2.81;86.97;98346.35;88140;1277;93554;-61
2022/02/02 09:54:30;;;;;;;3.80;2.30;;;;;;;2.83;86.83;98351.88;88196;1274;79966;-68
2022/02/02 09:59:20;;;;;;;4.50;2.30;;;;;;;2.85;86.84;98353.48;88195;1277;99558;-71
2022/02/02 10:02:09;;;;;;;4.00;2.50;;;;;;;2.87;86.87;98357.52;88198;1277;88851;-67
2022/02/02 10:04:32;;;;;;;4.70;2.80;;;;;;;2.92;86.91;98360.58;88168;1275;95717;-68
2022/02/02 10:06:55;;;;;;;5.50;3.40;;;;;;;2.88;86.88;98363.03;88145;1277;79333;-61
2022/02/02 10:09:29;;;;;;;6.50;3.20;;;;;;;2.89;86.86;98370.18;88162;1277;80917;-63
2022/02/02 10:14:52;;;;;;;10.30;5.80;;;;;;;2.83;86.99;98369.80;88185;1274;87389;-65
2022/02/02 10:17:08;;;;;;;9.00;4.60;;;;;;;2.87;86.91;98372.95;88186;1275;95208;-62
2022/02/02 10:19:20;;;;;;;9.60;5.20;;;;;;;2.86;87.09;98372.29;88200;1274;79540;-63
2022/02/02 10:21:35;;;;;;;7.20;4.50;;;;;;;2.89;86.89;98377.85;88187;1274;82276;-66
2022/02/02 10:23:50;;;;;;;5.50;3.70;;;;;;;2.96;86.91;98377.88;88206;1275;98591;-65
2022/02/02 10:26:16;;;;;;;6.30;3.90;;;;;;;2.94;86.99;98379.61;88163;1277;88610;-65
2022/02/02 10:28:26;;;;;;;4.90;3.40;;;;;;;2.92;86.92;98388.91;88164;1277;95402;-67
2022/02/02 10:30:36;;;;;;;6.50;3.80;;;;;;;2.94;86.94;98391.52;88104;1277;80041;-63
2022/02/02 10:32:48;;;;;;;6.20;3.50;;;;;;;2.97;86.87;98402.71;88172;1277;80688;-63
2022/02/02 10:34:57;;;;;;;7.40;3.50;;;;;;;3.03;86.84;98408.89;88161;1277;97623;-67
2022/02/02 10:37:29;;;;;;;6.20;3.60;;;;;;;3.07;86.76;98407.98;88177;1277;87178;-67
2022/02/02 10:39:51;;;;;;;5.80;3.50;;;;;;;3.02;86.85;98412.29;88150;1277;95410;-63
2022/02/02 10:42:01;;;;;;;4.70;3.00;;;;;;;3.05;86.73;98416.69;88172;1277;79031;-63
2022/02/02 10:44:27;;;;;;;5.50;3.30;;;;;;;3.03;86.68;98422.05;88171;1277;83288;-62
2022/02/02 10:46:42;;;;;;;5.10;3.30;;;;;;;2.96;86.76;98420.42;88147;1277;98804;-63
2022/02/02 10:48:58;;;;;;;4.70;3.40;;;;;;;2.90;86.60;98424.47;88167;1277;86939;-62
2022/02/02 10:51:15;;;;;;;4.90;3.20;;;;;;;2.88;86.67;98432.36;88144;1277;92908;-67
2022/02/02 10:53:39;;;;;;;6.00;3.40;;;;;;;2.94;86.62;98437.52;88166;1277;80381;-68
2022/02/02 10:56:05;;;;;;;5.10;3.40;;;;;;;2.96;86.62;98440.36;88154;1277;83624;-62
2022/02/02 10:58:30;;;;;;;4.70;3.10;;;;;;;2.97;86.48;98448.14;88154;1277;96821;-64
2022/02/02 11:00:53;;;;;;;4.20;2.60;;;;;;;3.02;86.68;98452.55;88175;1277;87317;-64
2022/02/02 11:08:01;;;;;;;4.80;2.70;;;;;;;3.09;86.62;98477.27;88201;1277;83103;-64
2022/02/02 11:10:13;;;;;;;3.50;2.20;;;;;;;3.10;86.43;98482.77;88164;1277;99000;-61
2022/02/02 11:12:32;;;;;;;4.20;2.70;;;;;;;3.08;86.41;98487.11;88175;1277;86711;-62
2022/02/02 11:14:49;;;;;;;3.80;2.70;;;;;;;2.97;86.52;98491.49;88174;1277;95874;-62
2022/02/02 11:17:05;;;;;;;4.60;2.70;;;;;;;2.98;86.43;98500.67;88140;1277;79021;-64
2022/02/02 11:19:22;;;;;;;4.90;2.50;;;;;;;3.01;86.33;98509.93;88143;1278;80790;-61
2022/02/02 11:21:37;;;;;;;4.20;2.40;;;;;;;3.06;86.31;98513.19;88141;1278;98970;-66
2022/02/02 11:23:48;;;;;;;4.30;2.70;;;;;;;3.12;86.22;98519.61;88164;1277;89313;-66
2022/02/02 11:25:59;;;;;;;3.40;2.30;;;;;;;3.08;86.24;98525.77;88150;1277;95638;-62
2022/02/02 11:28:48;;;;;;;4.20;2.50;;;;;;;3.09;86.17;98531.11;88153;1277;81498;-62
2022/02/02 11:31:11;;;;;;;4.50;3.00;;;;;;;2.97;86.17;98539.75;87963;1280;82615;-67
2022/02/02 11:33:27;;;;;;;4.10;2.70;;;;;;;2.88;86.33;98547.14;88075;1278;99111;-66
2022/02/02 11:35:45;;;;;;;4.60;3.20;;;;;;;2.79;86.14;98554.25;88166;1277;89051;-62
2022/02/02 11:38:07;;;;;;;4.60;3.30;;;;;;;2.73;86.01;98559.09;88172;1277;94199;-61
2022/02/02 11:40:16;;;;;;;5.50;3.50;;;;;;;2.76;85.96;98566.64;88168;1277;77278;-60
2022/02/02 11:42:54;;;;;;;5.00;3.70;;;;;;;2.66;85.97;98574.85;88163;1277;81459;-60
2022/02/02 11:45:51;;;;;;;3.90;3.00;;;;;;;2.51;86.16;98582.59;88154;1277;97952;-64
2022/02/02 11:48:06;;;;;;;5.90;3.50;;;;;;;2.46;86.05;98591.83;88183;1277;87461;-65
2022/02/02 11:50:17;;;;;;;4.90;3.70;;;;;;;2.43;86.11;98595.79;88120;1276;95126;-67
2022/02/02 11:52:44;;;;;;;5.40;3.70;;;;;;;2.46;85.94;98601.09;88150;1277;79057;-67
2022/02/02 11:54:55;;;;;;;5.60;3.60;;;;;;;2.45;85.86;98611.37;88150;1278;82778;-66
2022/02/02 11:57:22;;;;;;;4.90;4.20;;;;;;;2.48;85.99;98615.10;88125;1277;99338;-63
2022/02/02 12:00:00;;;;;;;5.70;4.00;;;;;;;2.49;86.16;98620.59;88135;1277;88899;-66
2022/02/02 12:02:21;;;;;;;5.50;4.00;;;;;;;2.49;86.03;98631.07;88152;1277;94875;-66
2022/02/02 12:04:53;;;;;;;5.50;4.40;;;;;;;2.44;86.22;98635.27;88143;1277;80205;-66
2022/02/02 12:07:12;;;;;;;5.60;4.60;;;;;;;2.41;86.24;98641.35;88158;1277;80867;-69
2022/02/02 12:09:41;;;;;;;7.10;4.70;;;;;;;2.38;86.14;98646.02;88300;1274;97704;-65
2022/02/02 12:20:58;;;;;;;8.30;6.20;;;;;;;2.17;86.20;98665.23;88275;1274;80772;-62
2022/02/02 12:46:54;;;;;;;13.30;9.40;;;;;;;2.06;86.53;98724.30;88119;1277;80138;-66
2022/02/02 12:49:04;;;;;;;14.60;10.00;;;;;;;2.14;86.53;98731.38;88134;1277;99029;-67
2022/02/02 12:54:36;;;;;;;15.60;10.70;;;;;;;2.24;86.65;98741.31;88143;1277;95715;-62
2022/02/02 12:56:34;;;;;;;16.50;11.20;;;;;;;2.20;86.73;98746.98;88140;1277;80296;-63
2022/02/02 12:58:48;;;;;;;16.50;10.70;;;;;;;2.23;86.80;98751.39;88421;1271;82822;-63
2022/02/02 13:01:09;;;;;;;14.60;10.90;;;;;;;2.26;86.79;98757.93;88423;1271;98570;-63
2022/02/02 13:03:19;;;;;;;17.40;11.20;;;;;;;2.34;86.63;98758.46;88380;1271;88852;-63
2022/02/02 13:05:31;;;;;;;16.80;11.50;;;;;;;2.35;86.76;98764.56;88415;1271;95322;-66
2022/02/02 13:07:42;;;;;;;17.50;12.30;;;;;;;2.33;86.69;98772.40;88436;1271;81060;-66
2022/02/02 13:09:53;;;;;;;18.60;11.80;;;;;;;2.43;86.58;98779.33;88433;1271;82028;-62
2022/02/02 13:12:20;;;;;;;15.60;11.60;;;;;;;2.46;86.58;98786.39;88404;1271;98976;-66
2022/02/02 13:14:47;;;;;;;15.60;11.40;;;;;;;2.46;86.46;98793.86;88426;1271;88989;-66
2022/02/02 13:17:06;;;;;;;19.00;12.80;;;;;;;2.47;86.61;98798.55;88405;1271;94378;-64
2022/02/02 13:19:28;;;;;;;19.70;14.20;;;;;;;2.48;86.55;98802.58;88397;1271;80114;-64
2022/02/02 13:21:45;;;;;;;21.30;13.80;;;;;;;2.50;86.68;98807.30;88423;1271;81489;-68
2022/02/02 13:24:01;;;;;;;20.50;15.00;;;;;;;2.52;86.72;98812.54;88398;1271;98650;-67
2022/02/02 13:26:27;;;;;;;20.60;14.80;;;;;;;2.55;86.77;98822.82;88389;1271;89179;-68
2022/02/02 13:29:05;;;;;;;21.50;14.60;;;;;;;2.51;86.91;98828.60;88280;1271;95370;-67
2022/02/02 13:31:34;;;;;;;22.10;15.20;;;;;;;2.45;86.88;98836.56;88409;1271;79032;-68
2022/02/02 13:33:50;;;;;;;20.80;15.60;;;;;;;2.51;86.81;98844.29;88424;1271;82042;-69
2022/02/02 13:36:22;;;;;;;22.50;14.80;;;;;;;2.56;86.86;98857.23;88392;1271;99480;-64
2022/02/02 13:38:47;;;;;;;22.10;15.10;;;;;;;2.52;86.82;98860.35;88441;1271;88461;-65
2022/02/02 13:43:52;;;;;;;24.60;16.60;;;;;;;2.56;86.88;98877.55;88221;1271;81365;-68
2022/02/02 13:46:19;;;;;;;23.60;16.40;;;;;;;2.58;86.81;98886.40;88443;1271;81259;-68
2022/02/02 13:51:10;;;;;;;25.90;17.60;;;;;;;2.68;86.76;98898.60;88422;1271;87677;-63
2022/02/02 13:53:53;;;;;;;26.00;17.40;;;;;;;2.69;86.74;98899.69;88309;1271;94361;-63
2022/02/02 13:56:15;;;;;;;21.00;15.30;;;;;;;2.68;86.69;98907.16;88342;1271;79310;-68
2022/02/02 13:58:38;;;;;;;23.70;16.00;;;;;;;2.62;86.67;98907.16;88391;1271;81884;-69
2022/02/02 14:00:58;;;;;;;21.50;15.70;;;;;;;2.67;86.68;98914.34;88412;1271;97282;-66
2022/02/02 14:05:58;;;;;;;22.50;15.60;;;;;;;2.67;86.73;98919.38;88374;1271;95679;-69
2022/02/02 14:11:00;;;;;;;22.40;16.10;;;;;;;2.71;86.66;98930.98;88163;1277;83316;-69
2022/02/02 14:32:44;;;;;;;20.20;15.50;;;;;;;2.67;86.61;98995.61;88385;1271;79525;-69
2022/02/02 14:34:53;;;;;;;20.40;15.70;;;;;;;2.70;86.53;98998.13;88406;1271;82828;-64
2022/02/02 14:37:06;;;;;;;22.60;15.50;;;;;;;2.71;86.53;98999.16;88408;1271;97273;-65
2022/02/02 14:39:25;;;;;;;20.10;15.10;;;;;;;2.63;86.67;99006.52;88379;1271;87797;-64
2022/02/02 14:41:36;;;;;;;21.40;15.30;;;;;;;2.64;86.58;99015.88;88403;1271;95354;-65
2022/02/02 14:43:54;;;;;;;20.50;14.70;;;;;;;2.61;86.49;99021.52;88403;1271;77999;-64
2022/02/02 14:46:10;;;;;;;21.10;14.90;;;;;;;2.51;86.52;99027.26;88397;1270;79504;-62
2022/02/02 14:48:26;;;;;;;18.60;14.10;;;;;;;2.41;86.65;99040.27;88397;1271;98842;-70
2022/02/02 14:50:49;;;;;;;19.80;13.70;;;;;;;2.34;86.57;99045.16;88421;1271;88613;-63
2022/02/02 14:53:15;;;;;;;20.00;13.70;;;;;;;2.26;86.52;99057.94;88388;1271;96111;-65
2022/02/02 14:55:59;;;;;;;19.80;15.00;;;;;;;2.29;86.62;99063.42;88402;1271;79677;-62
2022/02/02 15:27:52;;;;;;;19.20;12.90;;;;;;;2.08;86.92;99136.87;88366;1271;87974;-63
2022/02/02 15:30:21;;;;;;;17.10;12.30;;;;;;;2.04;87.07;99147.62;88407;1271;95233;-63
2022/02/02 15:32:36;;;;;;;18.50;13.30;;;;;;;2.05;87.05;99154.95;88402;1271;81936;-64
2022/02/02 15:34:48;;;;;;;20.00;13.50;;;;;;;2.04;87.09;99163.42;88452;1271;81735;-64
2022/02/02 15:39:25;;;;;;;16.70;11.90;;;;;;;2.07;87.28;99175.35;88332;1271;87651;-64
2022/02/02 15:41:45;;;;;;;19.00;13.10;;;;;;;2.11;87.32;99181.65;88390;1271;95666;-63
2022/02/02 15:58:43;;;;;;;20.20;13.30;;;;;;;2.05;87.58;99224.91;88436;1271;84218;-64